createdAt,value
2022-09-28T00:01:55.940Z,98954.28
2022-09-28T00:04:39.677Z,98950.75
2022-09-28T00:07:23.510Z,98953.25
2022-09-28T00:10:08.285Z,98943.53
2022-09-28T00:12:52.869Z,98957.25
2022-09-28T00:15:36.856Z,98905.66
2022-09-28T00:18:22.503Z,98939.53
2022-09-28T00:21:08.835Z,98915.88
2022-09-28T00:24:11.919Z,98912.28
2022-09-28T00:26:58.023Z,98895.69
2022-09-28T00:29:41.957Z,98946.22
2022-09-28T00:32:26.783Z,98910.09
2022-09-28T00:35:12.373Z,98931.59
2022-09-28T00:37:56.233Z,98919.38
2022-09-28T00:40:40.152Z,98934.47
2022-09-28T00:43:25.390Z,98965.13
2022-09-28T00:46:16.709Z,98957.78
2022-09-28T00:49:04.491Z,98954.53
2022-09-28T00:51:50.375Z,98951.66
2022-09-28T00:54:35.336Z,98949.38
2022-09-28T00:57:19.112Z,98952.78
2022-09-28T01:00:04.538Z,98982.50
2022-09-28T01:02:49.166Z,98964.97
2022-09-28T01:05:35.102Z,98978.91
2022-09-28T01:08:23.314Z,98988.63
2022-09-28T01:11:07.286Z,98989.88
2022-09-28T01:13:53.560Z,98989.22
2022-09-28T01:16:43.006Z,98981.09
2022-09-28T01:20:08.668Z,98987.25
2022-09-28T01:23:19.418Z,98976.94
2022-09-28T01:26:43.593Z,98970.72
2022-09-28T01:29:37.314Z,98973.81
2022-09-28T01:32:33.764Z,98975.34
2022-09-28T01:35:22.402Z,98983.34
2022-09-28T01:38:09.360Z,98991.47
2022-09-28T01:40:55.094Z,98989.22
2022-09-28T01:43:43.489Z,98977.59
2022-09-28T01:46:32.175Z,98978.59
2022-09-28T01:49:20.951Z,98977.19
2022-09-28T01:52:12.419Z,98975.09
2022-09-28T01:55:01.353Z,98978.03
2022-09-28T01:57:51.919Z,98973.00
2022-09-28T02:00:41.837Z,98974.94
2022-09-28T02:03:36.463Z,98966.41
2022-09-28T02:06:27.893Z,98969.06
2022-09-28T02:09:15.307Z,98964.31
2022-09-28T02:12:07.332Z,98926.94
2022-09-28T02:14:55.788Z,98926.78
2022-09-28T02:17:41.922Z,98925.38
2022-09-28T02:20:31.848Z,98961.78
2022-09-28T02:23:18.261Z,98937.28
2022-09-28T02:26:05.565Z,98974.66
2022-09-28T02:28:49.618Z,98978.88
2022-09-28T02:31:33.705Z,98942.59
2022-09-28T02:34:19.457Z,98971.16
2022-09-28T02:37:04.173Z,98927.91
2022-09-28T02:39:47.936Z,98971.59
2022-09-28T02:42:41.398Z,98948.91
2022-09-28T02:45:39.444Z,98971.72
2022-09-28T02:48:43.915Z,98966.00
2022-09-28T02:51:43.476Z,98975.09
2022-09-28T02:54:49.627Z,98956.84
2022-09-28T02:57:44.979Z,98983.69
2022-09-28T03:00:32.041Z,98961.50
2022-09-28T03:03:22.150Z,98981.53
2022-09-28T03:06:12.683Z,98947.66
2022-09-28T03:09:12.196Z,98979.16
2022-09-28T03:12:00.117Z,98978.31
2022-09-28T03:14:44.029Z,98987.81
2022-09-28T03:17:28.234Z,98998.97
2022-09-28T03:20:12.736Z,98983.88
2022-09-28T03:23:20.153Z,98994.41
2022-09-28T03:26:02.660Z,98991.13
2022-09-28T03:28:47.299Z,98995.03
2022-09-28T03:31:38.113Z,99004.88
2022-09-28T03:34:22.049Z,99003.72
2022-09-28T03:37:05.841Z,99011.44
2022-09-28T03:39:50.371Z,98989.50
2022-09-28T03:42:37.924Z,98980.50
2022-09-28T03:45:22.432Z,98998.44
2022-09-28T03:48:08.523Z,98991.63
2022-09-28T03:50:55.212Z,99012.44
2022-09-28T03:53:41.075Z,98979.78
2022-09-28T03:56:24.990Z,99005.53
2022-09-28T03:59:10.345Z,99012.25
2022-09-28T04:01:54.356Z,99013.44
2022-09-28T04:04:38.266Z,99013.97
2022-09-28T04:07:22.181Z,99010.34
2022-09-28T04:10:06.487Z,99004.78
2022-09-28T04:12:51.020Z,99002.69
2022-09-28T04:15:38.005Z,99001.13
2022-09-28T04:18:22.610Z,98984.47
2022-09-28T04:21:25.410Z,98996.34
2022-09-28T04:24:19.038Z,98993.97
2022-09-28T04:27:16.786Z,98977.19
2022-09-28T04:30:00.729Z,98896.81
2022-09-28T04:32:49.120Z,98966.41
2022-09-28T04:35:33.822Z,98988.25
2022-09-28T04:38:30.819Z,98996.78
2022-09-28T04:41:23.534Z,98980.13
2022-09-28T04:44:07.698Z,99017.25
2022-09-28T04:46:51.640Z,99019.91
2022-09-28T04:49:48.684Z,99026.50
2022-09-28T04:52:38.334Z,99027.75
2022-09-28T04:55:22.124Z,99030.09
2022-09-28T04:58:06.174Z,99032.34
2022-09-28T05:00:51.358Z,99017.50
2022-09-28T05:03:54.173Z,99034.97
2022-09-28T05:06:54.833Z,99036.53
2022-09-28T05:09:38.793Z,99029.25
2022-09-28T05:12:22.858Z,99047.72
2022-09-28T05:15:07.389Z,99041.63
2022-09-28T05:17:53.791Z,99052.28
2022-09-28T05:20:45.339Z,99057.94
2022-09-28T05:23:30.656Z,99060.88
2022-09-28T05:26:14.858Z,99045.09
2022-09-28T05:28:58.832Z,99054.25
2022-09-28T05:32:02.412Z,98935.25
2022-09-28T05:35:21.602Z,99028.84
2022-09-28T05:38:06.506Z,99068.06
2022-09-28T05:40:51.913Z,99070.38
2022-09-28T05:43:36.391Z,99064.94
2022-09-28T05:46:22.629Z,99087.31
2022-09-28T05:49:07.352Z,99086.22
2022-09-28T05:51:51.090Z,99087.53
2022-09-28T05:54:34.844Z,99097.44
2022-09-28T05:57:20.140Z,99091.81
2022-09-28T06:00:04.420Z,99069.50
2022-09-28T06:02:58.395Z,99086.94
2022-09-28T06:05:42.443Z,99057.84
2022-09-28T06:08:26.318Z,99094.63
2022-09-28T06:11:27.054Z,99089.72
2022-09-28T06:14:13.888Z,99093.47
2022-09-28T06:16:58.568Z,99090.94
2022-09-28T06:19:42.398Z,99099.53
2022-09-28T06:22:43.351Z,99108.25
2022-09-28T06:25:27.729Z,99097.59
2022-09-28T06:28:13.498Z,99111.97
2022-09-28T06:31:00.933Z,99080.94
2022-09-28T06:33:45.570Z,99114.06
2022-09-28T06:36:31.078Z,99114.63
2022-09-28T06:39:14.817Z,99107.41
2022-09-28T06:41:58.894Z,99111.94
2022-09-28T06:44:52.135Z,99110.19
2022-09-28T06:47:54.322Z,99107.47
2022-09-28T06:50:44.307Z,99099.66
2022-09-28T06:53:48.376Z,99101.53
2022-09-28T06:56:47.980Z,99107.72
2022-09-28T06:59:32.560Z,99106.56
2022-09-28T07:02:17.855Z,99106.28
2022-09-28T07:05:27.537Z,99111.53
2022-09-28T07:08:36.509Z,99093.09
2022-09-28T07:11:40.630Z,99108.53
2022-09-28T07:14:57.726Z,99110.19
2022-09-28T07:17:59.353Z,99111.88
2022-09-28T07:20:54.183Z,99113.84
2022-09-28T07:23:50.424Z,99108.09
2022-09-28T07:26:41.714Z,99105.75
2022-09-28T07:29:45.681Z,99103.94
2022-09-28T07:32:49.052Z,99098.22
2022-09-28T07:36:06.455Z,99080.94
2022-09-28T07:38:51.490Z,99101.38
2022-09-28T07:41:35.070Z,99088.97
2022-09-28T07:44:22.303Z,99100.53
2022-09-28T07:47:09.849Z,99102.94
2022-09-28T07:50:29.079Z,99104.03
2022-09-28T07:53:19.317Z,99106.53
2022-09-28T07:56:23.743Z,99096.09
2022-09-28T07:59:26.450Z,99093.03
2022-09-28T08:02:28.887Z,99086.97
2022-09-28T08:05:13.523Z,99087.13
2022-09-28T08:07:58.792Z,99085.56
2022-09-28T08:10:47.721Z,99080.97
2022-09-28T08:14:02.009Z,99073.13
2022-09-28T08:17:05.653Z,99051.16
2022-09-28T08:20:15.364Z,99082.91
2022-09-28T08:23:04.609Z,99000.03
2022-09-28T08:25:52.628Z,99080.94
2022-09-28T08:28:37.437Z,99076.47
2022-09-28T08:31:39.594Z,99076.09
2022-09-28T08:34:29.150Z,99081.47
2022-09-28T08:37:31.559Z,99086.94
2022-09-28T08:40:48.387Z,99089.25
2022-09-28T08:44:09.511Z,99077.00
2022-09-28T08:47:39.559Z,99082.84
2022-09-28T08:50:51.169Z,99088.91
2022-09-28T08:53:47.280Z,99096.22
2022-09-28T08:56:44.387Z,99096.78
2022-09-28T08:59:43.441Z,99079.88
2022-09-28T09:02:36.231Z,99085.97
2022-09-28T09:05:56.831Z,99083.56
2022-09-28T09:09:11.254Z,99086.56
2022-09-28T09:12:09.363Z,99086.28
2022-09-28T09:15:15.324Z,99087.31
2022-09-28T09:18:10.919Z,99073.53
2022-09-28T09:21:13.489Z,99090.81
2022-09-28T09:24:05.214Z,99074.94
2022-09-28T09:26:56.123Z,99080.44
2022-09-28T09:30:06.289Z,99078.84
2022-09-28T09:33:09.673Z,99068.00
2022-09-28T09:36:28.181Z,99076.91
2022-09-28T09:39:48.350Z,99075.75
2022-09-28T09:43:04.743Z,99080.25
2022-09-28T09:46:13.988Z,99086.81
2022-09-28T09:49:37.788Z,99088.84
2022-09-28T09:52:25.527Z,99078.16
2022-09-28T09:55:17.698Z,99086.69
2022-09-28T09:58:29.744Z,99103.00
2022-09-28T10:01:31.498Z,99099.25
2022-09-28T10:04:40.847Z,99101.72
2022-09-28T10:07:43.655Z,99094.34
2022-09-28T10:10:31.091Z,99099.25
2022-09-28T10:13:24.259Z,99108.34
2022-09-28T10:16:12.042Z,99088.41
2022-09-28T10:19:03.989Z,99095.16
2022-09-28T10:22:08.744Z,99080.78
2022-09-28T10:24:57.660Z,99046.09
2022-09-28T10:27:45.890Z,99069.19
2022-09-28T10:30:30.728Z,99089.66
2022-09-28T10:33:30.273Z,99094.94
2022-09-28T10:36:14.846Z,99067.75
2022-09-28T10:39:00.025Z,99078.66
2022-09-28T10:41:51.091Z,99082.41
2022-09-28T10:44:51.496Z,99077.53
2022-09-28T10:47:56.098Z,99071.44
2022-09-28T10:50:41.998Z,99072.69
2022-09-28T10:53:29.553Z,99070.47
2022-09-28T10:56:28.184Z,99067.97
2022-09-28T10:59:37.699Z,99068.72
2022-09-28T11:02:42.293Z,99065.94
2022-09-28T11:05:38.882Z,99072.91
2022-09-28T11:08:28.070Z,99066.03
2022-09-28T11:11:16.165Z,99076.69
2022-09-28T11:14:05.038Z,99056.25
2022-09-28T11:17:20.038Z,99063.66
2022-09-28T11:20:30.906Z,99066.00
2022-09-28T11:23:23.421Z,99044.78
2022-09-28T11:26:18.212Z,99054.84
2022-09-28T11:29:04.797Z,99056.31
2022-09-28T11:32:03.754Z,99049.03
2022-09-28T11:34:59.717Z,99038.63
2022-09-28T11:38:04.727Z,99059.06
2022-09-28T11:41:28.892Z,99049.47
2022-09-28T11:44:38.011Z,99055.22
2022-09-28T11:47:43.481Z,99052.13
2022-09-28T11:50:36.902Z,99042.78
2022-09-28T11:53:26.332Z,99034.88
2022-09-28T11:56:26.331Z,99034.88
2022-09-28T11:59:17.130Z,99033.00
2022-09-28T12:02:17.837Z,99042.16
2022-09-28T12:05:22.070Z,99014.06
2022-09-28T12:08:14.903Z,99049.84
2022-09-28T12:11:26.706Z,99043.00
2022-09-28T12:14:39.466Z,99040.72
2022-09-28T12:17:28.448Z,99046.09
2022-09-28T12:20:19.886Z,99018.69
2022-09-28T12:23:09.116Z,98999.50
2022-09-28T12:25:59.389Z,99035.72
2022-09-28T12:28:49.168Z,99004.25
2022-09-28T12:31:39.188Z,99044.84
2022-09-28T12:34:24.623Z,99044.03
2022-09-28T12:37:24.918Z,99043.59
2022-09-28T12:40:29.961Z,99038.19
2022-09-28T12:43:42.606Z,99026.91
2022-09-28T12:46:39.623Z,99037.69
2022-09-28T12:52:52.188Z,98979.66
2022-09-28T12:55:52.441Z,99020.22
2022-09-28T12:58:59.958Z,99016.56
2022-09-28T13:01:59.259Z,99029.88
2022-09-28T13:04:58.019Z,99015.97
2022-09-28T13:07:50.934Z,99016.06
2022-09-28T13:10:42.241Z,99017.75
2022-09-28T13:13:39.283Z,99021.06
2022-09-28T13:16:31.326Z,99023.44
2022-09-28T13:19:23.031Z,99014.88
2022-09-28T13:22:23.332Z,99008.88
2022-09-28T13:25:14.873Z,99022.34
2022-09-28T13:28:02.869Z,99029.41
2022-09-28T13:30:47.895Z,99031.50
2022-09-28T13:33:36.943Z,99022.78
2022-09-28T13:36:47.864Z,99025.31
2022-09-28T13:39:52.166Z,99036.50
2022-09-28T13:43:03.180Z,99036.53
2022-09-28T13:46:00.916Z,99017.81
2022-09-28T13:48:49.645Z,99024.63
2022-09-28T13:51:47.616Z,99015.47
2022-09-28T13:54:50.405Z,99009.47
2022-09-28T13:57:42.882Z,99032.78
2022-09-28T14:00:31.667Z,99034.81
2022-09-28T14:03:28.157Z,99032.75
2022-09-28T14:06:24.533Z,99028.16
2022-09-28T14:09:25.100Z,99040.91
2022-09-28T14:12:48.993Z,99039.44
2022-09-28T14:15:46.282Z,99036.75
2022-09-28T14:18:33.229Z,99041.75
2022-09-28T14:21:50.694Z,99011.97
2022-09-28T14:25:00.907Z,99037.41
2022-09-28T14:28:02.466Z,99042.38
2022-09-28T14:30:50.268Z,99036.53
2022-09-28T14:33:38.883Z,99035.06
2022-09-28T14:36:47.503Z,99055.44
2022-09-28T14:39:51.680Z,99046.50
2022-09-28T14:42:35.481Z,99037.91
2022-09-28T14:45:33.911Z,99041.47
2022-09-28T14:48:22.433Z,99066.16
2022-09-28T14:51:37.968Z,99068.47
2022-09-28T14:54:23.088Z,99072.06
2022-09-28T14:57:16.208Z,99075.84
2022-09-28T15:00:01.691Z,99071.72
2022-09-28T15:02:52.800Z,99077.53
2022-09-28T15:05:44.101Z,99077.38
2022-09-28T15:08:38.640Z,99089.59
2022-09-28T15:11:25.309Z,99097.28
2022-09-28T15:14:10.929Z,99082.13
2022-09-28T15:16:55.358Z,99110.13
2022-09-28T15:19:50.210Z,99105.84
2022-09-28T15:22:35.200Z,99110.81
2022-09-28T15:25:21.502Z,99123.25
2022-09-28T15:28:19.130Z,99125.44
2022-09-28T15:31:04.169Z,99138.97
2022-09-28T15:34:05.623Z,99142.84
2022-09-28T15:36:51.044Z,99143.69
2022-09-28T15:39:35.557Z,99148.38
2022-09-28T15:42:19.575Z,99153.13
2022-09-28T15:45:24.891Z,99145.16
2022-09-28T15:48:32.056Z,99148.50
2022-09-28T15:51:15.812Z,99155.50
2022-09-28T15:54:04.327Z,99113.66
2022-09-28T15:56:57.831Z,99152.50
2022-09-28T15:59:43.955Z,99126.50
2022-09-28T16:02:28.287Z,99116.84
2022-09-28T16:05:35.838Z,99157.13
2022-09-28T16:08:25.589Z,99154.78
2022-09-28T16:11:16.316Z,99165.78
2022-09-28T16:14:06.295Z,99156.28
2022-09-28T16:16:52.266Z,99129.28
2022-09-28T16:19:39.482Z,99159.41
2022-09-28T16:22:28.670Z,99160.47
2022-09-28T16:25:19.795Z,99156.53
2022-09-28T16:28:06.295Z,99147.56
2022-09-28T16:31:01.987Z,99158.66
2022-09-28T16:33:52.312Z,99176.72
2022-09-28T16:36:47.379Z,99188.13
2022-09-28T16:39:31.060Z,99179.50
2022-09-28T16:42:15.292Z,99154.59
2022-09-28T16:45:04.058Z,99184.19
2022-09-28T16:47:53.071Z,99158.28
2022-09-28T16:50:37.237Z,99146.38
2022-09-28T16:53:38.933Z,99191.47
2022-09-28T16:56:23.182Z,99199.84
2022-09-28T16:59:13.635Z,99194.50
2022-09-28T17:02:00.039Z,99183.94
2022-09-28T17:04:47.612Z,99189.78
2022-09-28T17:07:31.682Z,99182.59
2022-09-28T17:10:24.036Z,99199.19
2022-09-28T17:13:07.958Z,99189.81
2022-09-28T17:15:51.912Z,99209.69
2022-09-28T17:18:39.285Z,99199.03
2022-09-28T17:21:23.177Z,99198.00
2022-09-28T17:24:07.407Z,99192.63
2022-09-28T17:26:53.103Z,99201.25
2022-09-28T17:29:36.970Z,99211.59
2022-09-28T17:32:21.455Z,99182.84
2022-09-28T17:35:24.306Z,99207.06
2022-09-28T17:38:11.092Z,99221.56
2022-09-28T17:40:54.810Z,99233.75
2022-09-28T17:43:38.744Z,99236.31
2022-09-28T17:46:28.839Z,99236.75
2022-09-28T17:49:13.068Z,99245.16
2022-09-28T17:51:58.269Z,99244.31
2022-09-28T17:54:42.075Z,99222.41
2022-09-28T17:57:25.929Z,99242.72
2022-09-28T18:00:13.461Z,99232.41
2022-09-28T18:02:58.530Z,99233.72
2022-09-28T18:05:43.218Z,99248.50
2022-09-28T18:08:28.720Z,99220.63
2022-09-28T18:11:13.275Z,99250.50
2022-09-28T18:13:57.070Z,99250.53
2022-09-28T18:16:40.831Z,99241.28
2022-09-28T18:19:28.624Z,99253.78
2022-09-28T18:22:15.670Z,99229.16
2022-09-28T18:25:00.893Z,99260.44
2022-09-28T18:27:44.707Z,99265.22
2022-09-28T18:30:29.157Z,99252.69
2022-09-28T18:33:14.123Z,99251.56
2022-09-28T18:35:58.035Z,99197.44
2022-09-28T18:38:41.978Z,99237.91
2022-09-28T18:41:27.202Z,99239.44
2022-09-28T18:44:11.396Z,99241.66
2022-09-28T18:46:55.374Z,99243.72
2022-09-28T18:49:40.285Z,99248.97
2022-09-28T18:52:26.528Z,99229.03
2022-09-28T18:55:11.733Z,99241.59
2022-09-28T18:57:58.491Z,99197.06
2022-09-28T19:00:43.871Z,99234.09
2022-09-28T19:03:27.898Z,99237.50
2022-09-28T19:06:13.392Z,99225.97
2022-09-28T19:09:00.950Z,99228.97
2022-09-28T19:11:44.681Z,99225.25
2022-09-28T19:14:29.996Z,99234.13
2022-09-28T19:17:13.871Z,99231.00
2022-09-28T19:19:57.693Z,99224.69
2022-09-28T19:22:41.480Z,99225.34
2022-09-28T19:25:25.337Z,99223.53
2022-09-28T19:28:09.170Z,99207.84
2022-09-28T19:31:04.864Z,99230.81
2022-09-28T19:33:48.694Z,99236.16
2022-09-28T19:36:32.904Z,99246.88
2022-09-28T19:39:17.754Z,99255.00
2022-09-28T19:42:01.625Z,99255.47
2022-09-28T19:44:46.530Z,99240.81
2022-09-28T19:47:31.817Z,99257.75
2022-09-28T19:50:15.643Z,99249.97
2022-09-28T19:53:01.662Z,99247.53
2022-09-28T19:55:52.835Z,99247.19
2022-09-28T19:58:37.772Z,99249.69
2022-09-28T20:01:21.552Z,99249.84
2022-09-28T20:04:06.817Z,99252.44
2022-09-28T20:06:52.532Z,99236.72
2022-09-28T20:09:36.395Z,99251.38
2022-09-28T20:12:20.360Z,99247.06
2022-09-28T20:15:05.215Z,99238.72
2022-09-28T20:17:49.022Z,99247.94
2022-09-28T20:20:34.227Z,99247.72
2022-09-28T20:23:18.259Z,99246.59
2022-09-28T20:26:02.152Z,99194.06
2022-09-28T20:28:45.983Z,99253.97
2022-09-28T20:31:29.964Z,99246.31
2022-09-28T20:34:14.098Z,99241.91
2022-09-28T20:36:59.264Z,99255.94
2022-09-28T20:39:45.130Z,99262.81
2022-09-28T20:42:31.993Z,99261.84
2022-09-28T20:45:16.107Z,99253.16
2022-09-28T20:48:04.477Z,99248.59
2022-09-28T20:50:48.393Z,99252.63
2022-09-28T20:53:34.709Z,99244.00
2022-09-28T20:56:21.162Z,99254.00
2022-09-28T20:59:05.809Z,99218.63
2022-09-28T21:01:49.818Z,99263.78
2022-09-28T21:04:33.883Z,99256.50
2022-09-28T21:07:17.711Z,99202.56
2022-09-28T21:10:02.764Z,99252.31
2022-09-28T21:12:50.306Z,99255.66
2022-09-28T21:15:35.261Z,99260.84
2022-09-28T21:18:20.224Z,99265.28
2022-09-28T21:21:06.980Z,99270.84
2022-09-28T21:23:54.071Z,99268.94
2022-09-28T21:26:39.246Z,99275.81
2022-09-28T21:29:22.993Z,99246.13
2022-09-28T21:32:06.808Z,99255.06
2022-09-28T21:34:50.916Z,99277.88
2022-09-28T21:37:34.689Z,99258.22
2022-09-28T21:40:20.064Z,99269.22
2022-09-28T21:43:05.414Z,99283.47
2022-09-28T21:45:51.187Z,99174.53
2022-09-28T21:48:34.986Z,99285.38
2022-09-28T21:51:18.779Z,99281.78
2022-09-28T21:54:02.518Z,99288.50
2022-09-28T21:56:46.292Z,99282.53
2022-09-28T21:59:31.428Z,99256.34
2022-09-28T22:02:15.188Z,99267.97
2022-09-28T22:04:59.359Z,99272.00
2022-09-28T22:07:43.576Z,99250.00
2022-09-28T22:10:27.316Z,99278.44
2022-09-28T22:13:11.373Z,99272.06
2022-09-28T22:15:57.892Z,99265.59
2022-09-28T22:18:42.320Z,99258.44
2022-09-28T22:21:28.633Z,99251.88
2022-09-28T22:24:12.511Z,99251.53
2022-09-28T22:26:56.245Z,99263.00
2022-09-28T22:29:40.083Z,99235.22
2022-09-28T22:32:26.165Z,99252.69
2022-09-28T22:35:10.531Z,99260.09
2022-09-28T22:37:54.438Z,99259.03
2022-09-28T22:40:38.514Z,99260.66
2022-09-28T22:43:23.909Z,99264.75
2022-09-28T22:46:10.234Z,99258.81
2022-09-28T22:48:57.729Z,99264.75
2022-09-28T22:51:41.463Z,99259.81
2022-09-28T22:54:25.201Z,99260.56
2022-09-28T22:57:09.094Z,99254.81
2022-09-28T22:59:52.867Z,99256.91
2022-09-28T23:02:36.644Z,99255.13
2022-09-28T23:05:21.841Z,99250.38
2022-09-28T23:08:06.025Z,99209.84
2022-09-28T23:10:50.290Z,99250.47
2022-09-28T23:13:35.136Z,99232.53
2022-09-28T23:16:19.851Z,99251.78
2022-09-28T23:19:03.807Z,99247.72
2022-09-28T23:21:49.113Z,99217.53
2022-09-28T23:24:32.850Z,99234.56
2022-09-28T23:27:16.718Z,99245.06
2022-09-28T23:30:00.454Z,99246.59
2022-09-28T23:32:44.483Z,99247.56
2022-09-28T23:35:28.264Z,99252.25
2022-09-28T23:38:14.673Z,99250.03
2022-09-28T23:40:58.543Z,99239.59
2022-09-28T23:43:42.299Z,99242.53
2022-09-28T23:46:26.104Z,99237.66
2022-09-28T23:49:09.992Z,99239.09
2022-09-28T23:51:53.940Z,99233.44
2022-09-28T23:54:38.995Z,99232.28
2022-09-28T23:57:22.667Z,99226.81
